Effective Sunday, March 17, 2024, the National Weather Service National Data Buoy Center will discontinue its Dial-A-Buoy Interactive Voice Response system. For more information, see Service Change Notice 24-06 (PDF).

Station WCRP1 - Walnut Creek Marina, PA Image indicating link to RSS feed of recent meteorological observations for station WCRP1


Conditions at WCRP1 as of
(2:00 am EST)
0700 GMT on 02/23/2024:
     

Click on the graph icon in the table below to see a time series plot of the last five days of that observation.

5-day plot - Wind Direction Wind Direction (WDIR):SSW ( 210 deg true )
5-day plot - Wind Speed Wind Speed (WSPD): 1.9 kts
5-day plot - Wind Gust Wind Gust (GST): 4.1 kts
5-day plot - Air Temperature Air Temperature (ATMP): 36.9 °F
5-day plot - Wind Speed at 10 Meters Wind Speed at 10 meters (WSPD10M): 1.9 kts
5-day plot - Wind Speed at 20 Meters Wind Speed at 20 meters (WSPD20M): 1.9 kts
5-day plot -  Wind Speed, Wind Gust and Atmospheric Pressure Combined plot of Wind Speed, Gust, and Air Pressure
Previous observations
TIME
(EST)
5-day plot - Wind Direction
WDIR
 
5-day plot - Wind Speed
WSPD
kts
5-day plot - Wind Gust
GST
kts
5-day plot - Wave Height
WVHT
ft
5-day plot - Dominant Wave Period
DPD
sec
5-day plot - Average Wave Period
APD
sec
5-day plot - Mean Wave Direction
MWD
 
5-day plot - Atmospheric Pressure
PRES
in
5-day plot - Pressure Tendency
PTDY
in
5-day plot - Air Temperature
ATMP
°F
5-day plot - Water Temperature
WTMP
°F
5-day plot - Dew Point
DEWP
°F
5-day plot - Salinity
SAL
psu
5-day plot - Visibility
VIS
nmi
5-day plot - Tide (above MLLW)
TIDE
ft
2024-02-23 01:50 am SW 1.9 4.1------ 37.0-----
2024-02-23 01:40 amSSW 1.9------- 37.2-----
2024-02-23 01:30 am SW 2.9 5.1------ 37.2-----
2024-02-23 01:20 am SW 1.9 2.9------ 39.2-----
2024-02-23 01:10 am SW 1.9 1.9------ 38.7-----
2024-02-23 01:00 am SW 1.0 1.9------ 39.2-----
2024-02-23 12:50 am- 0.0 1.0------------
2024-02-23 12:40 am S 1.0 1.9------------
2024-02-23 12:30 amSSE 1.0 1.9------------
2024-02-23 12:20 amSSE 1.0 1.9------ 40.1-----
2024-02-23 12:10 am- 0.0 1.0------ 39.9-----
2024-02-23 12:00 am- 0.0 1.0------ 39.9-----
2024-02-22 11:50 pm- 0.0 1.0------ 39.9-----
2024-02-22 11:40 pm- 0.0 0.0------ 39.7-----
2024-02-22 11:30 pm- 0.0 0.0------ 39.6-----
2024-02-22 11:20 pm- 0.0 0.0------ 39.6-----
2024-02-22 11:10 pm- 0.0 1.0------ 39.4-----
2024-02-22 11:00 pm- 0.0 1.0------ 39.0-----
2024-02-22 10:50 pm- 0.0 1.9------ 38.7-----
2024-02-22 10:40 pmWSW 2.9 2.9------ 38.3-----
2024-02-22 10:30 pm W 1.9 1.9------ 40.1-----
2024-02-22 10:20 pm- 0.0 0.0------ 41.2-----
2024-02-22 10:10 pm- 0.0 1.0------------
2024-02-22 10:00 pm- 0.0 1.0------------
2024-02-22 09:50 pm- 0.0 0.0------ 39.4-----
2024-02-22 09:40 pm- 0.0 1.0------ 39.4-----
2024-02-22 09:30 pm- 0.0 1.0------ 39.4-----
2024-02-22 09:20 pm- 0.0 1.0------------
2024-02-22 09:10 pm- 0.0 0.0------ 42.1-----
2024-02-22 09:00 pm- 0.0 1.0------ 41.7-----
2024-02-22 08:50 pm SE 1.0 1.0------ 41.4-----
2024-02-22 08:40 pm- 0.0 1.0------------
2024-02-22 08:30 pm- 0.0 1.0------ 41.5-----
2024-02-22 08:20 pm- 0.0 1.0------------
2024-02-22 08:10 pm- 0.0 1.0------ 41.0-----
2024-02-22 08:00 pm- 0.0 1.9------ 40.3-----
2024-02-22 07:50 pm- 0.0 1.9------ 39.6-----
2024-02-22 07:40 pmNNE 1.0 2.9------ 38.8-----
2024-02-22 07:30 pm- 0.0 1.9------ 39.9-----
2024-02-22 07:20 pm- 0.0 1.0------------
2024-02-22 07:10 pm- 0.0 0.0------ 41.9-----
2024-02-22 07:00 pm- 0.0 1.0------ 41.5-----
2024-02-22 06:50 pmSSE 1.0 1.9------ 42.1-----
2024-02-22 06:40 pm- 0.0 1.0------ 41.5-----
2024-02-22 06:30 pm- 0.0 1.0------ 41.2-----
2024-02-22 06:20 pm- 0.0 0.0------------
2024-02-22 06:10 pm- 0.0 0.0------ 40.3-----
2024-02-22 06:00 pm- 0.0 0.0------ 39.6-----
2024-02-22 05:50 pm- 0.0 1.0------ 39.7-----
2024-02-22 05:40 pm- 0.0 4.1------ 38.1-----
2024-02-22 05:30 pm NW 1.9 4.1------ 38.8-----
2024-02-22 05:20 pm- 0.0 1.9------ 43.3-----
2024-02-22 05:10 pm S 1.9 4.1------ 43.5-----
2024-02-22 05:00 pm SE 1.9 2.9------ 41.4-----
2024-02-22 04:50 pmNNE 1.9 1.9------ 42.6-----
2024-02-22 04:40 pm- 0.0 1.0------ 42.6-----
2024-02-22 04:30 pm- 0.0 1.9------ 42.1-----
2024-02-22 04:20 pm NE 1.9 1.9------ 41.7-----
2024-02-22 04:10 pm- 0.0 1.9------ 42.1-----
2024-02-22 04:00 pm NE 1.9 2.9------ 41.4-----
2024-02-22 03:50 pm NE 1.9 2.9------------
2024-02-22 03:40 pm NE 1.9 2.9------------
2024-02-22 03:30 pmNNE 2.9 2.9------------
2024-02-22 03:20 pmNNE 2.9 4.1------ 40.3-----
2024-02-22 03:10 pmNNE 2.9 4.1------ 40.1-----
2024-02-22 03:00 pm N 1.9 2.9------ 41.0-----
2024-02-22 02:50 pm N 1.9 4.1------------
2024-02-22 02:40 pm SE-------- 45.3-----
2024-02-22 02:30 pm SE 2.9 4.1------ 45.1-----
2024-02-22 02:20 pmSSE 2.9 5.1------ 45.1-----
2024-02-22 02:10 pmSSE 4.1 5.1------ 45.1-----
2024-02-22 02:00 pmSSE 2.9 5.1------ 45.1-----
2024-02-22 01:50 pm S-------- 45.0-----
2024-02-22 01:40 pm S 1.9 2.9------ 44.8-----
2024-02-22 01:30 pm S 2.9 7.0------ 45.0-----
2024-02-22 01:20 pm S 5.1 8.0------ 44.8-----
2024-02-22 01:10 pmSSE 5.1 9.9------ 44.4-----
2024-02-22 01:00 pmSSE 7.0 8.9------ 44.2-----
2024-02-22 12:50 pmSSE 6.0 9.9------------
2024-02-22 12:40 pmSSE 5.1 9.9------ 44.2-----
2024-02-22 12:30 pmSSE 6.0 9.9------ 44.1-----
2024-02-22 12:20 pmSSE 8.0 12.0------ 44.1-----
2024-02-22 12:10 pmSSE 8.9 14.0------ 44.4-----
2024-02-22 12:00 pmSSE 8.0 14.0------ 44.6-----
2024-02-22 11:50 amSSE 11.1 15.9------------
2024-02-22 11:40 amSSE 9.9 15.9------ 45.0-----
2024-02-22 11:30 amSSE 11.1 15.9------ 45.3-----
2024-02-22 11:20 amSSE 8.9 15.9------ 45.3-----
2024-02-22 11:10 amSSE 9.9 15.0------ 45.3-----
2024-02-22 11:00 amSSE 8.9 13.0------ 45.3-----
2024-02-22 10:50 amSSE 6.0 13.0------ 45.1-----
2024-02-22 10:40 amSSE 8.0 14.0------ 45.0-----
2024-02-22 10:30 amSSE 9.9 15.0------ 45.0-----
2024-02-22 10:20 amSSE 9.9 15.9------ 45.0-----
2024-02-22 10:10 amSSE 8.0 15.0------ 45.1-----
2024-02-22 10:00 amSSE 11.1 17.1------ 45.3-----
2024-02-22 09:50 amSSE 8.9 14.0------ 45.5-----
2024-02-22 09:40 amSSE 9.9 15.0------ 45.5-----
2024-02-22 09:30 amSSE 8.0 12.0------ 45.7-----
2024-02-22 09:20 amSSE 7.0 13.0------ 45.5-----
2024-02-22 09:10 amSSE 8.0 13.0------ 45.3-----
2024-02-22 09:00 amSSE 8.0 14.0------ 45.1-----
2024-02-22 08:50 amSSE 8.0 12.0------ 45.1-----
2024-02-22 08:40 amSSE 8.9 17.1------ 45.1-----
2024-02-22 08:30 amSSE 12.0------- 45.1-----
2024-02-22 08:20 amSSE 11.1------- 45.0-----
2024-02-22 08:10 amSSE 8.9 13.0------ 45.1-----
2024-02-22 08:00 amSSE 8.0 14.0------ 45.1-----
2024-02-22 07:50 amSSE 8.0 18.1------ 45.3-----
2024-02-22 07:40 amSSE 13.0 18.1------ 45.3-----
2024-02-22 07:30 amSSE 12.0 18.1------ 45.5-----
2024-02-22 07:20 amSSE 13.0 17.1------ 45.7-----
2024-02-22 07:10 am S 9.9 20.0------------
2024-02-22 07:00 amSSE 9.9 20.0------ 46.2-----
2024-02-22 06:50 amSSE 13.0 19.0------ 46.6-----
2024-02-22 06:40 amSSE 11.1 22.0------ 46.6-----
2024-02-22 06:30 amSSE 13.0 20.0------ 46.6-----
2024-02-22 06:20 am S 13.0 19.0------ 46.8-----
2024-02-22 06:10 amSSE 14.0 22.9------ 47.1-----
2024-02-22 06:00 am S 13.0 20.0------ 47.5-----
2024-02-22 05:50 amSSE 13.0 22.9------ 47.5-----
2024-02-22 05:40 am S 15.9 24.1------ 47.8-----
2024-02-22 05:30 amSSE 15.0 24.1------ 47.7-----
2024-02-22 05:20 amSSE 13.0 20.0------ 47.7-----
2024-02-22 05:10 amSSE 15.0 22.0------ 48.0-----
2024-02-22 05:00 amSSE 14.0 22.0------ 48.4-----
2024-02-22 04:50 amSSE 14.0 21.0------ 49.3-----
2024-02-22 04:40 am S 13.0 22.0------ 49.8-----
2024-02-22 04:30 amSSE 14.0 24.1------ 50.4-----
2024-02-22 04:20 amSSE 15.9 25.1------ 50.7-----
2024-02-22 04:10 am S 14.0 22.9------ 50.9-----
2024-02-22 04:00 am S 8.0 22.9------ 50.5-----
2024-02-22 03:50 amSSE 12.0 22.9------ 50.5-----
2024-02-22 03:40 amSSE 13.0 22.0------ 50.2-----
2024-02-22 03:30 amSSE 12.0 22.0------ 50.2-----
2024-02-22 03:20 amSSE 14.0 20.0------ 50.2-----
2024-02-22 03:10 amSSE 12.0 24.1------ 50.0-----
2024-02-22 03:00 amSSE 12.0 19.0------ 50.0-----
2024-02-22 02:50 amSSE 13.0 22.9------ 50.0-----
2024-02-22 02:40 amSSE 12.0 21.0------ 50.4-----
2024-02-22 02:30 amSSE 13.0 19.0------ 50.5-----
2024-02-22 02:20 amSSE 14.0 20.0------ 50.9-----
2024-02-22 02:10 am S 9.9 22.9------ 50.7-----
2024-02-22 02:00 amSSE 12.0 20.0------ 50.5-----
2024-02-22 01:50 amSSE 11.1 18.1------ 49.8-----